sensor_id;sensor_type;location;lat;lon;timestamp;P1;durP1;ratioP1;P2;durP2;ratioP2
21505;SDS011;10914;48.886;9.394;2023-01-19T00:01:13;64.22;;;58.65;;
21505;SDS011;10914;48.886;9.394;2023-01-19T00:03:38;63.28;;;57.88;;
21505;SDS011;10914;48.886;9.394;2023-01-19T00:06:04;57.85;;;53.53;;
21505;SDS011;10914;48.886;9.394;2023-01-19T00:08:30;62.17;;;56.78;;
21505;SDS011;10914;48.886;9.394;2023-01-19T00:10:55;59.92;;;55.03;;
21505;SDS011;10914;48.886;9.394;2023-01-19T00:13:20;59.58;;;54.58;;
21505;SDS011;10914;48.886;9.394;2023-01-19T00:15:45;57.85;;;53.25;;
21505;SDS011;10914;48.886;9.394;2023-01-19T00:18:11;61.40;;;56.34;;
21505;SDS011;10914;48.886;9.394;2023-01-19T00:20:36;57.13;;;52.25;;
21505;SDS011;10914;48.886;9.394;2023-01-19T00:23:02;57.33;;;52.42;;
21505;SDS011;10914;48.886;9.394;2023-01-19T00:25:28;57.05;;;52.53;;
21505;SDS011;10914;48.886;9.394;2023-01-19T00:27:53;55.70;;;51.03;;
21505;SDS011;10914;48.886;9.394;2023-01-19T00:30:18;57.47;;;52.17;;
21505;SDS011;10914;48.886;9.394;2023-01-19T00:32:44;56.22;;;51.65;;
21505;SDS011;10914;48.886;9.394;2023-01-19T00:35:09;58.15;;;53.13;;
21505;SDS011;10914;48.886;9.394;2023-01-19T00:37:34;59.45;;;54.65;;
21505;SDS011;10914;48.886;9.394;2023-01-19T00:40:00;58.75;;;54.00;;
21505;SDS011;10914;48.886;9.394;2023-01-19T00:42:25;55.45;;;50.65;;
21505;SDS011;10914;48.886;9.394;2023-01-19T00:45:08;55.10;;;50.63;;
21505;SDS011;10914;48.886;9.394;2023-01-19T00:47:34;57.38;;;52.47;;
21505;SDS011;10914;48.886;9.394;2023-01-19T00:49:59;57.30;;;52.10;;
21505;SDS011;10914;48.886;9.394;2023-01-19T00:52:24;56.45;;;51.65;;
21505;SDS011;10914;48.886;9.394;2023-01-19T00:54:49;53.67;;;49.17;;
21505;SDS011;10914;48.886;9.394;2023-01-19T00:57:15;55.15;;;50.30;;
21505;SDS011;10914;48.886;9.394;2023-01-19T00:59:40;53.22;;;48.38;;
21505;SDS011;10914;48.886;9.394;2023-01-19T01:02:06;53.42;;;48.78;;
21505;SDS011;10914;48.886;9.394;2023-01-19T01:04:31;54.17;;;49.05;;
21505;SDS011;10914;48.886;9.394;2023-01-19T01:06:56;53.13;;;48.40;;
21505;SDS011;10914;48.886;9.394;2023-01-19T01:09:22;53.55;;;48.55;;
21505;SDS011;10914;48.886;9.394;2023-01-19T01:11:48;53.42;;;48.33;;
21505;SDS011;10914;48.886;9.394;2023-01-19T01:14:13;51.25;;;46.65;;
21505;SDS011;10914;48.886;9.394;2023-01-19T01:16:38;52.47;;;47.72;;
21505;SDS011;10914;48.886;9.394;2023-01-19T01:19:03;50.15;;;45.75;;
21505;SDS011;10914;48.886;9.394;2023-01-19T01:21:29;53.80;;;48.78;;
21505;SDS011;10914;48.886;9.394;2023-01-19T01:23:54;51.30;;;46.50;;
21505;SDS011;10914;48.886;9.394;2023-01-19T01:26:19;51.80;;;46.88;;
21505;SDS011;10914;48.886;9.394;2023-01-19T01:28:44;51.80;;;46.85;;
21505;SDS011;10914;48.886;9.394;2023-01-19T01:31:10;50.85;;;45.95;;
21505;SDS011;10914;48.886;9.394;2023-01-19T01:33:35;49.08;;;44.75;;
21505;SDS011;10914;48.886;9.394;2023-01-19T01:36:00;51.72;;;46.72;;
21505;SDS011;10914;48.886;9.394;2023-01-19T01:38:25;53.80;;;48.78;;
21505;SDS011;10914;48.886;9.394;2023-01-19T01:40:50;54.70;;;49.52;;
21505;SDS011;10914;48.886;9.394;2023-01-19T01:43:16;57.40;;;52.10;;
21505;SDS011;10914;48.886;9.394;2023-01-19T01:45:42;59.50;;;54.50;;
21505;SDS011;10914;48.886;9.394;2023-01-19T01:50:33;60.20;;;55.22;;
21505;SDS011;10914;48.886;9.394;2023-01-19T01:53:07;58.28;;;53.47;;
21505;SDS011;10914;48.886;9.394;2023-01-19T01:55:44;61.25;;;56.00;;
21505;SDS011;10914;48.886;9.394;2023-01-19T01:58:10;62.38;;;56.78;;
21505;SDS011;10914;48.886;9.394;2023-01-19T02:00:36;62.13;;;56.63;;
21505;SDS011;10914;48.886;9.394;2023-01-19T02:03:23;61.58;;;56.17;;
21505;SDS011;10914;48.886;9.394;2023-01-19T02:05:49;57.47;;;52.85;;
21505;SDS011;10914;48.886;9.394;2023-01-19T02:08:19;55.95;;;51.03;;
21505;SDS011;10914;48.886;9.394;2023-01-19T02:11:07;61.75;;;55.78;;
21505;SDS011;10914;48.886;9.394;2023-01-19T02:13:51;61.50;;;56.28;;
21505;SDS011;10914;48.886;9.394;2023-01-19T02:16:16;58.05;;;53.00;;
21505;SDS011;10914;48.886;9.394;2023-01-19T02:18:42;57.38;;;52.60;;
21505;SDS011;10914;48.886;9.394;2023-01-19T02:26:15;54.33;;;49.83;;
21505;SDS011;10914;48.886;9.394;2023-01-19T02:28:43;56.08;;;51.17;;
21505;SDS011;10914;48.886;9.394;2023-01-19T02:31:10;53.10;;;48.80;;
21505;SDS011;10914;48.886;9.394;2023-01-19T02:33:36;51.30;;;47.38;;
21505;SDS011;10914;48.886;9.394;2023-01-19T02:36:01;54.78;;;50.03;;
21505;SDS011;10914;48.886;9.394;2023-01-19T02:38:27;59.88;;;54.35;;
21505;SDS011;10914;48.886;9.394;2023-01-19T02:40:54;54.42;;;49.80;;
21505;SDS011;10914;48.886;9.394;2023-01-19T02:43:19;59.25;;;54.05;;
21505;SDS011;10914;48.886;9.394;2023-01-19T02:45:45;53.78;;;49.22;;
21505;SDS011;10914;48.886;9.394;2023-01-19T02:48:12;58.08;;;53.03;;
21505;SDS011;10914;48.886;9.394;2023-01-19T02:50:39;54.78;;;50.15;;
21505;SDS011;10914;48.886;9.394;2023-01-19T02:55:56;54.85;;;50.30;;
21505;SDS011;10914;48.886;9.394;2023-01-19T02:58:29;58.42;;;53.40;;
21505;SDS011;10914;48.886;9.394;2023-01-19T03:01:07;60.67;;;55.40;;
21505;SDS011;10914;48.886;9.394;2023-01-19T03:08:55;64.07;;;58.70;;
21505;SDS011;10914;48.886;9.394;2023-01-19T03:11:21;63.90;;;58.42;;
21505;SDS011;10914;48.886;9.394;2023-01-19T03:16:19;60.78;;;55.65;;
21505;SDS011;10914;48.886;9.394;2023-01-19T03:18:46;62.85;;;57.85;;
21505;SDS011;10914;48.886;9.394;2023-01-19T03:21:13;66.05;;;60.70;;
21505;SDS011;10914;48.886;9.394;2023-01-19T03:23:40;63.72;;;58.88;;
21505;SDS011;10914;48.886;9.394;2023-01-19T03:26:08;62.42;;;57.58;;
21505;SDS011;10914;48.886;9.394;2023-01-19T03:28:34;62.08;;;57.13;;
21505;SDS011;10914;48.886;9.394;2023-01-19T03:31:19;62.38;;;57.50;;
21505;SDS011;10914;48.886;9.394;2023-01-19T03:33:47;63.88;;;58.72;;
21505;SDS011;10914;48.886;9.394;2023-01-19T03:36:14;63.92;;;59.03;;
21505;SDS011;10914;48.886;9.394;2023-01-19T03:38:40;65.93;;;60.63;;
21505;SDS011;10914;48.886;9.394;2023-01-19T03:41:08;67.57;;;62.20;;
21505;SDS011;10914;48.886;9.394;2023-01-19T03:43:34;66.63;;;61.83;;
21505;SDS011;10914;48.886;9.394;2023-01-19T03:45:59;66.68;;;61.45;;
21505;SDS011;10914;48.886;9.394;2023-01-19T03:48:26;67.43;;;62.42;;
21505;SDS011;10914;48.886;9.394;2023-01-19T03:50:52;68.05;;;62.80;;
21505;SDS011;10914;48.886;9.394;2023-01-19T03:53:19;66.20;;;61.13;;
21505;SDS011;10914;48.886;9.394;2023-01-19T03:55:45;65.45;;;60.28;;
21505;SDS011;10914;48.886;9.394;2023-01-19T03:58:11;62.10;;;57.65;;
21505;SDS011;10914;48.886;9.394;2023-01-19T04:00:36;64.15;;;59.25;;
21505;SDS011;10914;48.886;9.394;2023-01-19T04:03:05;69.03;;;63.65;;
21505;SDS011;10914;48.886;9.394;2023-01-19T04:05:30;63.95;;;58.85;;
21505;SDS011;10914;48.886;9.394;2023-01-19T04:07:56;63.88;;;58.90;;
21505;SDS011;10914;48.886;9.394;2023-01-19T04:10:21;66.25;;;60.92;;
21505;SDS011;10914;48.886;9.394;2023-01-19T04:12:47;66.28;;;60.80;;
21505;SDS011;10914;48.886;9.394;2023-01-19T04:15:12;66.40;;;61.47;;
21505;SDS011;10914;48.886;9.394;2023-01-19T04:17:37;67.00;;;61.90;;
21505;SDS011;10914;48.886;9.394;2023-01-19T04:20:03;65.55;;;60.65;;
21505;SDS011;10914;48.886;9.394;2023-01-19T04:22:28;66.25;;;61.22;;
21505;SDS011;10914;48.886;9.394;2023-01-19T04:24:54;66.35;;;61.22;;
21505;SDS011;10914;48.886;9.394;2023-01-19T04:27:19;67.18;;;61.90;;
21505;SDS011;10914;48.886;9.394;2023-01-19T04:29:45;68.05;;;63.15;;
21505;SDS011;10914;48.886;9.394;2023-01-19T04:32:11;69.65;;;64.43;;
21505;SDS011;10914;48.886;9.394;2023-01-19T04:34:37;69.53;;;64.53;;
21505;SDS011;10914;48.886;9.394;2023-01-19T04:37:02;70.43;;;65.38;;
21505;SDS011;10914;48.886;9.394;2023-01-19T04:39:27;69.57;;;64.72;;
21505;SDS011;10914;48.886;9.394;2023-01-19T04:41:52;66.30;;;61.53;;
21505;SDS011;10914;48.886;9.394;2023-01-19T04:44:18;65.05;;;60.10;;
21505;SDS011;10914;48.886;9.394;2023-01-19T04:46:43;60.50;;;55.85;;
21505;SDS011;10914;48.886;9.394;2023-01-19T04:49:09;65.65;;;60.33;;
21505;SDS011;10914;48.886;9.394;2023-01-19T04:51:34;70.22;;;64.95;;
21505;SDS011;10914;48.886;9.394;2023-01-19T04:54:00;72.68;;;67.68;;
21505;SDS011;10914;48.886;9.394;2023-01-19T04:56:25;71.75;;;66.78;;
21505;SDS011;10914;48.886;9.394;2023-01-19T04:58:50;77.50;;;71.72;;
21505;SDS011;10914;48.886;9.394;2023-01-19T05:01:16;73.38;;;67.88;;
21505;SDS011;10914;48.886;9.394;2023-01-19T05:03:41;74.53;;;69.35;;
21505;SDS011;10914;48.886;9.394;2023-01-19T05:06:06;76.32;;;70.90;;
21505;SDS011;10914;48.886;9.394;2023-01-19T05:08:31;71.55;;;66.38;;
21505;SDS011;10914;48.886;9.394;2023-01-19T05:10:57;74.63;;;69.03;;
21505;SDS011;10914;48.886;9.394;2023-01-19T05:13:22;75.85;;;70.18;;
21505;SDS011;10914;48.886;9.394;2023-01-19T05:15:47;72.22;;;66.95;;
21505;SDS011;10914;48.886;9.394;2023-01-19T05:18:12;74.22;;;69.00;;
21505;SDS011;10914;48.886;9.394;2023-01-19T05:20:38;82.00;;;76.25;;
21505;SDS011;10914;48.886;9.394;2023-01-19T05:23:04;69.53;;;64.63;;
21505;SDS011;10914;48.886;9.394;2023-01-19T05:25:29;72.40;;;66.93;;
21505;SDS011;10914;48.886;9.394;2023-01-19T05:27:54;73.72;;;67.86;;
21505;SDS011;10914;48.886;9.394;2023-01-19T05:30:19;68.63;;;63.00;;
21505;SDS011;10914;48.886;9.394;2023-01-19T05:32:44;67.45;;;62.42;;
21505;SDS011;10914;48.886;9.394;2023-01-19T05:35:10;63.60;;;58.60;;
21505;SDS011;10914;48.886;9.394;2023-01-19T05:37:37;60.92;;;56.33;;
21505;SDS011;10914;48.886;9.394;2023-01-19T05:40:02;67.00;;;61.72;;
21505;SDS011;10914;48.886;9.394;2023-01-19T05:42:28;62.35;;;57.33;;
21505;SDS011;10914;48.886;9.394;2023-01-19T05:44:53;62.40;;;56.80;;
21505;SDS011;10914;48.886;9.394;2023-01-19T05:47:18;60.15;;;55.13;;
21505;SDS011;10914;48.886;9.394;2023-01-19T05:49:43;62.42;;;57.25;;
21505;SDS011;10914;48.886;9.394;2023-01-19T05:52:09;64.20;;;58.80;;
21505;SDS011;10914;48.886;9.394;2023-01-19T05:54:34;66.22;;;60.85;;
21505;SDS011;10914;48.886;9.394;2023-01-19T05:56:59;59.78;;;54.58;;
21505;SDS011;10914;48.886;9.394;2023-01-19T05:59:24;54.75;;;50.05;;
21505;SDS011;10914;48.886;9.394;2023-01-19T06:01:50;60.30;;;54.67;;
21505;SDS011;10914;48.886;9.394;2023-01-19T06:04:15;57.75;;;52.78;;
21505;SDS011;10914;48.886;9.394;2023-01-19T06:06:41;59.38;;;54.55;;
21505;SDS011;10914;48.886;9.394;2023-01-19T06:09:06;70.00;;;63.90;;
21505;SDS011;10914;48.886;9.394;2023-01-19T06:11:31;68.35;;;62.58;;
21505;SDS011;10914;48.886;9.394;2023-01-19T06:13:57;74.43;;;68.85;;
21505;SDS011;10914;48.886;9.394;2023-01-19T06:16:22;64.22;;;59.26;;
21505;SDS011;10914;48.886;9.394;2023-01-19T06:18:47;64.90;;;59.54;;
21505;SDS011;10914;48.886;9.394;2023-01-19T06:21:12;63.17;;;58.15;;
21505;SDS011;10914;48.886;9.394;2023-01-19T06:23:38;64.82;;;59.45;;
21505;SDS011;10914;48.886;9.394;2023-01-19T06:26:03;73.55;;;67.55;;
21505;SDS011;10914;48.886;9.394;2023-01-19T06:28:29;84.50;;;78.18;;
21505;SDS011;10914;48.886;9.394;2023-01-19T06:30:54;77.07;;;70.65;;
21505;SDS011;10914;48.886;9.394;2023-01-19T06:33:20;72.10;;;65.70;;
21505;SDS011;10914;48.886;9.394;2023-01-19T06:35:45;65.65;;;59.25;;
21505;SDS011;10914;48.886;9.394;2023-01-19T06:38:11;61.47;;;55.50;;
21505;SDS011;10914;48.886;9.394;2023-01-19T06:40:37;62.60;;;56.63;;
21505;SDS011;10914;48.886;9.394;2023-01-19T06:43:03;59.85;;;54.20;;
21505;SDS011;10914;48.886;9.394;2023-01-19T06:45:28;74.04;;;67.64;;
21505;SDS011;10914;48.886;9.394;2023-01-19T06:47:53;65.97;;;59.85;;
21505;SDS011;10914;48.886;9.394;2023-01-19T06:50:19;68.22;;;61.75;;
21505;SDS011;10914;48.886;9.394;2023-01-19T06:52:44;62.10;;;56.28;;
21505;SDS011;10914;48.886;9.394;2023-01-19T06:55:09;62.78;;;55.08;;
21505;SDS011;10914;48.886;9.394;2023-01-19T06:57:35;62.28;;;56.40;;
21505;SDS011;10914;48.886;9.394;2023-01-19T07:00:02;63.78;;;57.45;;
21505;SDS011;10914;48.886;9.394;2023-01-19T07:02:30;67.20;;;60.67;;
21505;SDS011;10914;48.886;9.394;2023-01-19T07:04:55;64.00;;;57.72;;
21505;SDS011;10914;48.886;9.394;2023-01-19T07:07:20;65.18;;;58.67;;
21505;SDS011;10914;48.886;9.394;2023-01-19T07:09:45;66.32;;;59.82;;
21505;SDS011;10914;48.886;9.394;2023-01-19T07:12:10;68.45;;;62.05;;
21505;SDS011;10914;48.886;9.394;2023-01-19T07:14:36;62.08;;;56.06;;
21505;SDS011;10914;48.886;9.394;2023-01-19T07:17:01;68.44;;;61.94;;
21505;SDS011;10914;48.886;9.394;2023-01-19T07:19:26;69.30;;;62.78;;
21505;SDS011;10914;48.886;9.394;2023-01-19T07:21:52;74.20;;;67.60;;
21505;SDS011;10914;48.886;9.394;2023-01-19T07:24:17;69.07;;;62.63;;
21505;SDS011;10914;48.886;9.394;2023-01-19T07:26:42;67.88;;;61.53;;
21505;SDS011;10914;48.886;9.394;2023-01-19T07:29:07;58.45;;;53.53;;
21505;SDS011;10914;48.886;9.394;2023-01-19T07:31:33;56.10;;;50.90;;
21505;SDS011;10914;48.886;9.394;2023-01-19T07:33:58;55.08;;;50.17;;
21505;SDS011;10914;48.886;9.394;2023-01-19T07:36:24;55.67;;;50.60;;
21505;SDS011;10914;48.886;9.394;2023-01-19T07:38:49;55.58;;;51.03;;
21505;SDS011;10914;48.886;9.394;2023-01-19T07:41:14;58.47;;;53.30;;
21505;SDS011;10914;48.886;9.394;2023-01-19T07:43:40;56.47;;;51.95;;
21505;SDS011;10914;48.886;9.394;2023-01-19T07:46:05;56.70;;;52.00;;
21505;SDS011;10914;48.886;9.394;2023-01-19T07:48:31;59.53;;;54.35;;
21505;SDS011;10914;48.886;9.394;2023-01-19T07:51:00;65.35;;;59.95;;
21505;SDS011;10914;48.886;9.394;2023-01-19T07:53:25;68.57;;;62.80;;
21505;SDS011;10914;48.886;9.394;2023-01-19T07:55:54;70.65;;;64.70;;
21505;SDS011;10914;48.886;9.394;2023-01-19T07:58:20;67.15;;;61.53;;
21505;SDS011;10914;48.886;9.394;2023-01-19T08:00:45;73.43;;;67.40;;
21505;SDS011;10914;48.886;9.394;2023-01-19T08:03:10;78.13;;;72.28;;
21505;SDS011;10914;48.886;9.394;2023-01-19T08:05:36;81.32;;;75.57;;
21505;SDS011;10914;48.886;9.394;2023-01-19T08:08:01;82.95;;;77.15;;
21505;SDS011;10914;48.886;9.394;2023-01-19T08:10:27;82.82;;;76.72;;
21505;SDS011;10914;48.886;9.394;2023-01-19T08:12:53;69.82;;;64.25;;
21505;SDS011;10914;48.886;9.394;2023-01-19T08:15:18;65.18;;;59.90;;
21505;SDS011;10914;48.886;9.394;2023-01-19T08:17:44;65.50;;;60.15;;
21505;SDS011;10914;48.886;9.394;2023-01-19T08:20:09;59.85;;;54.67;;
21505;SDS011;10914;48.886;9.394;2023-01-19T08:22:35;52.85;;;48.20;;
21505;SDS011;10914;48.886;9.394;2023-01-19T08:25:00;50.38;;;46.08;;
21505;SDS011;10914;48.886;9.394;2023-01-19T08:27:25;50.40;;;45.80;;
21505;SDS011;10914;48.886;9.394;2023-01-19T08:29:50;51.88;;;47.08;;
21505;SDS011;10914;48.886;9.394;2023-01-19T08:32:16;49.95;;;45.47;;
21505;SDS011;10914;48.886;9.394;2023-01-19T08:34:41;52.22;;;47.70;;
21505;SDS011;10914;48.886;9.394;2023-01-19T08:37:06;48.67;;;44.53;;
21505;SDS011;10914;48.886;9.394;2023-01-19T08:39:31;54.75;;;50.08;;
21505;SDS011;10914;48.886;9.394;2023-01-19T08:41:57;54.53;;;49.90;;
21505;SDS011;10914;48.886;9.394;2023-01-19T08:44:24;53.60;;;49.33;;
21505;SDS011;10914;48.886;9.394;2023-01-19T08:46:49;55.12;;;50.58;;
21505;SDS011;10914;48.886;9.394;2023-01-19T08:49:14;51.65;;;47.47;;
21505;SDS011;10914;48.886;9.394;2023-01-19T08:51:40;44.63;;;40.63;;
21505;SDS011;10914;48.886;9.394;2023-01-19T08:54:05;43.35;;;39.65;;
21505;SDS011;10914;48.886;9.394;2023-01-19T08:56:30;40.00;;;36.63;;
21505;SDS011;10914;48.886;9.394;2023-01-19T08:58:55;37.25;;;34.15;;
21505;SDS011;10914;48.886;9.394;2023-01-19T09:01:21;37.33;;;34.13;;
21505;SDS011;10914;48.886;9.394;2023-01-19T09:03:46;36.65;;;33.78;;
21505;SDS011;10914;48.886;9.394;2023-01-19T09:06:12;36.13;;;33.33;;
21505;SDS011;10914;48.886;9.394;2023-01-19T09:08:38;38.08;;;35.30;;
21505;SDS011;10914;48.886;9.394;2023-01-19T09:11:03;40.95;;;38.28;;
21505;SDS011;10914;48.886;9.394;2023-01-19T09:13:31;49.53;;;46.22;;
21505;SDS011;10914;48.886;9.394;2023-01-19T09:15:56;48.05;;;44.58;;
21505;SDS011;10914;48.886;9.394;2023-01-19T09:18:21;43.97;;;40.97;;
21505;SDS011;10914;48.886;9.394;2023-01-19T09:20:48;44.97;;;42.05;;
21505;SDS011;10914;48.886;9.394;2023-01-19T09:23:14;44.00;;;41.05;;
21505;SDS011;10914;48.886;9.394;2023-01-19T09:25:40;41.90;;;39.10;;
21505;SDS011;10914;48.886;9.394;2023-01-19T09:28:06;42.58;;;39.55;;
21505;SDS011;10914;48.886;9.394;2023-01-19T09:30:33;41.38;;;38.58;;
21505;SDS011;10914;48.886;9.394;2023-01-19T09:33:01;39.78;;;36.85;;
21505;SDS011;10914;48.886;9.394;2023-01-19T09:35:27;35.85;;;33.30;;
21505;SDS011;10914;48.886;9.394;2023-01-19T09:37:52;35.28;;;32.70;;
21505;SDS011;10914;48.886;9.394;2023-01-19T09:40:17;34.50;;;31.77;;
21505;SDS011;10914;48.886;9.394;2023-01-19T09:42:54;35.08;;;32.38;;
21505;SDS011;10914;48.886;9.394;2023-01-19T09:45:33;34.40;;;31.85;;
21505;SDS011;10914;48.886;9.394;2023-01-19T09:48:00;34.40;;;31.70;;
21505;SDS011;10914;48.886;9.394;2023-01-19T09:50:27;34.08;;;31.52;;
21505;SDS011;10914;48.886;9.394;2023-01-19T09:52:56;34.75;;;32.00;;
21505;SDS011;10914;48.886;9.394;2023-01-19T09:55:25;33.88;;;31.42;;
21505;SDS011;10914;48.886;9.394;2023-01-19T09:57:51;33.33;;;30.85;;
21505;SDS011;10914;48.886;9.394;2023-01-19T10:00:16;33.60;;;31.27;;
21505;SDS011;10914;48.886;9.394;2023-01-19T10:02:47;33.30;;;30.88;;
21505;SDS011;10914;48.886;9.394;2023-01-19T10:05:28;34.10;;;31.63;;
21505;SDS011;10914;48.886;9.394;2023-01-19T10:10:30;32.92;;;30.63;;
21505;SDS011;10914;48.886;9.394;2023-01-19T10:12:58;33.75;;;31.38;;
21505;SDS011;10914;48.886;9.394;2023-01-19T10:20:28;33.00;;;30.73;;
21505;SDS011;10914;48.886;9.394;2023-01-19T10:22:57;32.90;;;30.60;;
21505;SDS011;10914;48.886;9.394;2023-01-19T10:25:23;33.13;;;30.90;;
21505;SDS011;10914;48.886;9.394;2023-01-19T10:27:48;33.78;;;31.27;;
21505;SDS011;10914;48.886;9.394;2023-01-19T10:30:17;32.60;;;30.40;;
21505;SDS011;10914;48.886;9.394;2023-01-19T10:32:44;33.35;;;31.10;;
21505;SDS011;10914;48.886;9.394;2023-01-19T10:35:13;33.22;;;30.77;;
21505;SDS011;10914;48.886;9.394;2023-01-19T10:37:45;33.15;;;30.85;;
21505;SDS011;10914;48.886;9.394;2023-01-19T10:42:36;31.98;;;29.88;;
21505;SDS011;10914;48.886;9.394;2023-01-19T10:45:02;31.90;;;29.70;;
21505;SDS011;10914;48.886;9.394;2023-01-19T10:47:34;31.40;;;29.20;;
21505;SDS011;10914;48.886;9.394;2023-01-19T10:50:05;31.73;;;29.45;;
21505;SDS011;10914;48.886;9.394;2023-01-19T10:52:45;31.48;;;29.42;;
21505;SDS011;10914;48.886;9.394;2023-01-19T10:55:22;32.50;;;30.10;;
21505;SDS011;10914;48.886;9.394;2023-01-19T10:57:47;31.77;;;29.58;;
21505;SDS011;10914;48.886;9.394;2023-01-19T11:02:57;37.78;;;34.38;;
21505;SDS011;10914;48.886;9.394;2023-01-19T11:05:29;32.50;;;30.10;;
21505;SDS011;10914;48.886;9.394;2023-01-19T11:07:54;33.42;;;31.13;;
21505;SDS011;10914;48.886;9.394;2023-01-19T11:10:22;31.90;;;29.70;;
21505;SDS011;10914;48.886;9.394;2023-01-19T11:13:04;32.03;;;29.60;;
21505;SDS011;10914;48.886;9.394;2023-01-19T11:18:27;31.48;;;29.17;;
21505;SDS011;10914;48.886;9.394;2023-01-19T11:20:54;32.97;;;30.50;;
21505;SDS011;10914;48.886;9.394;2023-01-19T11:25:58;31.60;;;29.45;;
21505;SDS011;10914;48.886;9.394;2023-01-19T11:33:35;31.33;;;29.05;;
21505;SDS011;10914;48.886;9.394;2023-01-19T11:36:05;31.70;;;29.50;;
21505;SDS011;10914;48.886;9.394;2023-01-19T11:38:31;37.10;;;33.85;;
21505;SDS011;10914;48.886;9.394;2023-01-19T11:40:57;35.45;;;32.33;;
21505;SDS011;10914;48.886;9.394;2023-01-19T11:43:23;31.45;;;29.35;;
21505;SDS011;10914;48.886;9.394;2023-01-19T11:45:58;32.70;;;30.45;;
21505;SDS011;10914;48.886;9.394;2023-01-19T11:48:32;32.10;;;29.83;;
21505;SDS011;10914;48.886;9.394;2023-01-19T11:51:01;30.92;;;29.02;;
21505;SDS011;10914;48.886;9.394;2023-01-19T11:53:29;32.63;;;30.55;;
21505;SDS011;10914;48.886;9.394;2023-01-19T11:56:01;34.17;;;31.85;;
21505;SDS011;10914;48.886;9.394;2023-01-19T11:58:28;34.05;;;31.77;;
21505;SDS011;10914;48.886;9.394;2023-01-19T12:03:28;33.42;;;31.17;;
21505;SDS011;10914;48.886;9.394;2023-01-19T12:06:02;32.70;;;30.65;;
21505;SDS011;10914;48.886;9.394;2023-01-19T12:08:44;33.10;;;30.80;;
21505;SDS011;10914;48.886;9.394;2023-01-19T12:11:12;33.97;;;31.65;;
21505;SDS011;10914;48.886;9.394;2023-01-19T12:13:39;34.08;;;31.88;;
21505;SDS011;10914;48.886;9.394;2023-01-19T12:16:12;34.25;;;32.15;;
21505;SDS011;10914;48.886;9.394;2023-01-19T12:18:43;34.60;;;32.33;;
21505;SDS011;10914;48.886;9.394;2023-01-19T12:21:09;31.85;;;29.65;;
21505;SDS011;10914;48.886;9.394;2023-01-19T12:28:41;31.55;;;29.25;;
21505;SDS011;10914;48.886;9.394;2023-01-19T12:31:07;31.25;;;29.15;;
21505;SDS011;10914;48.886;9.394;2023-01-19T12:38:54;31.38;;;29.23;;
21505;SDS011;10914;48.886;9.394;2023-01-19T12:41:32;32.58;;;30.33;;
21505;SDS011;10914;48.886;9.394;2023-01-19T12:46:42;33.72;;;31.58;;
21505;SDS011;10914;48.886;9.394;2023-01-19T12:51:51;32.03;;;29.92;;
21505;SDS011;10914;48.886;9.394;2023-01-19T12:54:39;33.05;;;30.55;;
21505;SDS011;10914;48.886;9.394;2023-01-19T12:57:07;31.70;;;29.60;;
21505;SDS011;10914;48.886;9.394;2023-01-19T12:59:34;31.45;;;29.33;;
21505;SDS011;10914;48.886;9.394;2023-01-19T13:07:28;31.80;;;29.80;;
21505;SDS011;10914;48.886;9.394;2023-01-19T13:09:53;31.83;;;29.38;;
21505;SDS011;10914;48.886;9.394;2023-01-19T13:12:19;31.23;;;29.10;;
21505;SDS011;10914;48.886;9.394;2023-01-19T13:14:45;32.17;;;30.08;;
21505;SDS011;10914;48.886;9.394;2023-01-19T13:17:32;32.38;;;30.17;;
21505;SDS011;10914;48.886;9.394;2023-01-19T13:20:01;32.78;;;30.48;;
21505;SDS011;10914;48.886;9.394;2023-01-19T13:25:23;35.20;;;32.50;;
21505;SDS011;10914;48.886;9.394;2023-01-19T13:27:50;34.50;;;31.70;;
21505;SDS011;10914;48.886;9.394;2023-01-19T13:30:16;35.58;;;32.92;;
21505;SDS011;10914;48.886;9.394;2023-01-19T13:32:43;35.40;;;32.78;;
21505;SDS011;10914;48.886;9.394;2023-01-19T13:35:16;35.45;;;32.55;;
21505;SDS011;10914;48.886;9.394;2023-01-19T13:37:42;35.50;;;32.80;;
21505;SDS011;10914;48.886;9.394;2023-01-19T13:40:21;34.25;;;31.75;;
21505;SDS011;10914;48.886;9.394;2023-01-19T13:42:48;38.30;;;35.08;;
21505;SDS011;10914;48.886;9.394;2023-01-19T13:48:13;37.78;;;34.67;;
21505;SDS011;10914;48.886;9.394;2023-01-19T13:50:39;35.08;;;32.58;;
21505;SDS011;10914;48.886;9.394;2023-01-19T13:53:17;33.95;;;31.45;;
21505;SDS011;10914;48.886;9.394;2023-01-19T13:55:44;35.47;;;32.97;;
21505;SDS011;10914;48.886;9.394;2023-01-19T13:58:21;34.42;;;31.85;;
21505;SDS011;10914;48.886;9.394;2023-01-19T14:00:46;34.17;;;31.77;;
21505;SDS011;10914;48.886;9.394;2023-01-19T14:05:37;35.78;;;33.38;;
21505;SDS011;10914;48.886;9.394;2023-01-19T14:13:18;35.97;;;33.20;;
21505;SDS011;10914;48.886;9.394;2023-01-19T14:15:44;36.42;;;33.72;;
21505;SDS011;10914;48.886;9.394;2023-01-19T14:20:38;33.60;;;31.10;;
21505;SDS011;10914;48.886;9.394;2023-01-19T14:23:04;34.53;;;32.00;;
21505;SDS011;10914;48.886;9.394;2023-01-19T14:25:30;35.70;;;33.10;;
21505;SDS011;10914;48.886;9.394;2023-01-19T14:30:51;34.95;;;32.45;;
21505;SDS011;10914;48.886;9.394;2023-01-19T14:36:07;34.35;;;31.92;;
21505;SDS011;10914;48.886;9.394;2023-01-19T14:38:33;39.28;;;35.97;;
21505;SDS011;10914;48.886;9.394;2023-01-19T14:40:58;42.25;;;38.20;;
21505;SDS011;10914;48.886;9.394;2023-01-19T14:43:23;42.80;;;38.80;;
21505;SDS011;10914;48.886;9.394;2023-01-19T14:45:52;36.33;;;33.53;;
21505;SDS011;10914;48.886;9.394;2023-01-19T14:48:18;33.90;;;31.40;;
21505;SDS011;10914;48.886;9.394;2023-01-19T14:50:44;38.75;;;35.60;;
21505;SDS011;10914;48.886;9.394;2023-01-19T14:53:15;39.78;;;36.50;;
21505;SDS011;10914;48.886;9.394;2023-01-19T14:56:14;65.22;;;50.63;;
21505;SDS011;10914;48.886;9.394;2023-01-19T14:58:33;42.95;;;38.75;;
21505;SDS011;10914;48.886;9.394;2023-01-19T15:00:59;38.08;;;35.17;;
21505;SDS011;10914;48.886;9.394;2023-01-19T15:03:24;56.25;;;47.00;;
21505;SDS011;10914;48.886;9.394;2023-01-19T15:05:51;44.30;;;40.17;;
21505;SDS011;10914;48.886;9.394;2023-01-19T15:08:18;40.47;;;36.88;;
21505;SDS011;10914;48.886;9.394;2023-01-19T15:10:44;39.25;;;36.00;;
21505;SDS011;10914;48.886;9.394;2023-01-19T15:13:19;40.30;;;36.97;;
21505;SDS011;10914;48.886;9.394;2023-01-19T15:15:45;38.67;;;35.67;;
21505;SDS011;10914;48.886;9.394;2023-01-19T15:18:12;36.38;;;33.65;;
21505;SDS011;10914;48.886;9.394;2023-01-19T15:20:39;34.90;;;32.35;;
21505;SDS011;10914;48.886;9.394;2023-01-19T15:23:04;34.83;;;32.33;;
21505;SDS011;10914;48.886;9.394;2023-01-19T15:25:29;36.92;;;34.13;;
21505;SDS011;10914;48.886;9.394;2023-01-19T15:27:58;34.70;;;32.15;;
21505;SDS011;10914;48.886;9.394;2023-01-19T15:30:26;53.72;;;44.90;;
21505;SDS011;10914;48.886;9.394;2023-01-19T15:33:00;76.72;;;54.85;;
21505;SDS011;10914;48.886;9.394;2023-01-19T15:35:26;95.07;;;66.43;;
21505;SDS011;10914;48.886;9.394;2023-01-19T15:37:51;99.25;;;68.25;;
21505;SDS011;10914;48.886;9.394;2023-01-19T15:40:17;138.27;;;83.40;;
21505;SDS011;10914;48.886;9.394;2023-01-19T15:42:43;159.82;;;89.82;;
21505;SDS011;10914;48.886;9.394;2023-01-19T15:47:52;77.20;;;58.50;;
21505;SDS011;10914;48.886;9.394;2023-01-19T15:50:17;66.13;;;57.63;;